Waldorf, MN (56091)

1:58 PM CDT on May 25, 2015 (GMT -0500)
Blue Valley Sod | | Change Station
CLOSE
Current Station
Personal Weather Station
Location: Mapleton, MN
Elevation: 1014 ft
Nearby Weather Stations

Elev 1014 ft 43.94 °N, 93.83 °W | Updated 26 minutes ago

Overcast
Overcast
69.5 °F
Feels Like 69.5 °F
N
10.0
Wind Variable Wind from West
Gusts 17.0 mph

Today
High -- | Low -- °F
--% Chance of Precip.
Yesterday
High -- | Low -- °F
Precip. -- in
5:39 AM 8:44 PM
Waxing Crescent, 51% visible
Pressure 29.76 in
Visibility 10.0 miles
Clouds Scattered Clouds 2900 ft
Scattered Clouds 3800 ft
Mostly Cloudy 4300 ft
Dew Point 62 °F
Humidity 79%
Rainfall 0.00 in
Snow Depth Not available.
UV 6 out of 12
Pollen .80 out of 12
Air Quality Not available.
Flu Activity Sporadic
METAR KACQ 251854Z AUTO 23013KT 10SM SCT029 SCT038 BKN043 21/16 A2976 RMK AO2

More Conditions Fewer Conditions

Pressure 29.76 in
Visibility 10.0 miles
Clouds Scattered Clouds 2900 ft
Scattered Clouds 3800 ft
Mostly Cloudy 4300 ft
Dew Point 62 °F
Humidity 79%
Rainfall 0.00 in
Snow Depth Not available.
UV 6 out of 12
Pollen .80 out of 12
Air Quality Not available.
Flu Activity Sporadic
METAR KACQ 251854Z AUTO 23013KT 10SM SCT029 SCT038 BKN043 21/16 A2976 RMK AO2

More Conditions Fewer Conditions

10-Day Weather Forecast

Almanac

Astronomy

May. 25, 2015 Rise Set
Actual Time
Civil Twilight
Nautical Twilight
Astronomical Twilight
Moon
Length of Visible Light
Length of Day
Tomorrow will be .
, % of the Moon is Illuminated

Today's Extremes

State Highs State Lows

Community

WunderPhotos

Upload Photos

1,824,080 photos uploaded!

WunderBlogs® & News

Nearby

Air Quality

  Air Quality AQ Index Pollutant
Not available.

Snow Depth

Station Depth Elevation

Earthquake Activity

City Distance Mag. Time & Date
Minimum magnitude displayed is 2.5.

Coastal Water Temperatures

Place Temperature

Stations

Nearby Weather Stations

Station Location Temp. Windchill Dew Point Humidity Wind Precip. Elev Updated Type